Time;durP1;ratioP1;P1;durP2;ratioP2;P2;SDS_P1;SDS_P2;PMS_P1;PMS_P2;Temp;Humidity;BMP_temperature;BMP_pressure;BME280_temperature;BME280_humidity;BME280_pressure;Samples;Min_cycle;Max_cycle;Signal;HPM_P1;HPM_P2
2022/03/19 00:00:29;;;;;;;43.05;28.45;;;;;;;;;;4954163;28;20114;-68
2022/03/19 00:02:57;;;;;;;39.22;24.95;;;;;;;;;;4956387;28;20510;-68
2022/03/19 00:05:27;;;;;;;29.95;25.02;;;;;;;;;;4955064;28;20050;-67
2022/03/19 00:07:56;;;;;;;33.40;24.02;;;;;;;;;;4957179;28;20047;-67
2022/03/19 00:10:24;;;;;;;33.58;24.52;;;;;;;;;;4956566;29;20048;-67
2022/03/19 00:12:54;;;;;;;34.38;25.85;;;;;;;;;;4956176;28;20066;-67
2022/03/19 00:15:22;;;;;;;36.75;28.25;;;;;;;;;;4956113;28;20123;-67
2022/03/19 00:17:54;;;;;;;36.38;26.63;;;;;;;;;;4955912;29;20043;-67
2022/03/19 00:20:22;;;;;;;34.22;26.35;;;;;;;;;;4956660;28;20075;-68
2022/03/19 00:22:53;;;;;;;33.15;25.65;;;;;;;;;;4956951;29;20098;-67
2022/03/19 00:25:22;;;;;;;29.80;25.88;;;;;;;;;;4956708;29;20058;-68
2022/03/19 00:27:51;;;;;;;36.38;28.02;;;;;;;;;;4963797;28;20055;-68
2022/03/19 00:30:20;;;;;;;34.53;25.20;;;;;;;;;;4973127;28;20126;-67
2022/03/19 00:32:51;;;;;;;37.85;24.65;;;;;;;;;;4955942;28;20371;-67
2022/03/19 00:35:20;;;;;;;34.70;26.60;;;;;;;;;;4954997;28;20063;-67
2022/03/19 00:37:51;;;;;;;32.85;24.67;;;;;;;;;;4956453;29;20055;-68
2022/03/19 00:40:22;;;;;;;33.97;27.00;;;;;;;;;;4956677;28;20101;-68
2022/03/19 00:42:51;;;;;;;43.58;27.45;;;;;;;;;;4955878;28;20047;-67
2022/03/19 00:45:19;;;;;;;31.98;25.45;;;;;;;;;;4956309;28;20044;-67
2022/03/19 00:47:49;;;;;;;42.78;29.40;;;;;;;;;;4955159;28;20138;-70
2022/03/19 00:50:19;;;;;;;36.75;25.67;;;;;;;;;;4953408;29;20126;-70
2022/03/19 00:52:47;;;;;;;37.63;24.55;;;;;;;;;;4950513;29;20392;-70
2022/03/19 00:55:16;;;;;;;34.30;25.83;;;;;;;;;;4935933;29;20414;-70
2022/03/19 00:57:46;;;;;;;34.22;24.30;;;;;;;;;;4954244;28;20461;-70
2022/03/19 01:00:21;;;;;;;39.90;25.80;;;;;;;;;;4955252;29;20047;-68
2022/03/19 01:02:51;;;;;;;34.85;26.60;;;;;;;;;;4954139;29;20487;-68
2022/03/19 01:05:20;;;;;;;35.42;24.70;;;;;;;;;;4955133;28;20045;-68
2022/03/19 01:07:53;;;;;;;31.73;24.27;;;;;;;;;;4955810;29;20051;-68
2022/03/19 01:10:27;;;;;;;33.90;26.15;;;;;;;;;;4953968;29;20474;-68
2022/03/19 01:12:56;;;;;;;39.40;25.23;;;;;;;;;;4955713;28;20047;-68
2022/03/19 01:15:26;;;;;;;31.75;24.02;;;;;;;;;;4955675;29;20058;-68
2022/03/19 01:17:54;;;;;;;30.77;24.00;;;;;;;;;;4955261;28;20517;-68
2022/03/19 01:20:24;;;;;;;32.97;23.88;;;;;;;;;;4955227;28;20058;-68
2022/03/19 01:22:53;;;;;;;28.15;22.23;;;;;;;;;;4955578;29;20142;-68
2022/03/19 01:25:22;;;;;;;32.17;23.33;;;;;;;;;;4954917;29;20558;-68
2022/03/19 01:27:50;;;;;;;33.35;25.50;;;;;;;;;;4952148;29;20070;-68
2022/03/19 01:30:24;;;;;;;34.03;23.38;;;;;;;;;;4951996;29;20047;-68
2022/03/19 01:32:52;;;;;;;35.90;24.30;;;;;;;;;;4951339;29;20057;-68
2022/03/19 01:35:22;;;;;;;26.80;21.45;;;;;;;;;;4955271;28;20070;-68
2022/03/19 01:37:52;;;;;;;31.75;24.08;;;;;;;;;;4955256;29;20450;-68
2022/03/19 01:40:22;;;;;;;28.40;22.70;;;;;;;;;;4955081;28;20501;-68
2022/03/19 01:42:52;;;;;;;26.65;22.08;;;;;;;;;;4954875;29;20086;-68
2022/03/19 01:45:24;;;;;;;36.67;25.50;;;;;;;;;;4955397;28;20472;-68
2022/03/19 01:47:54;;;;;;;33.35;24.40;;;;;;;;;;4955061;28;20059;-68
2022/03/19 01:50:25;;;;;;;28.38;22.77;;;;;;;;;;4955302;28;20058;-67
2022/03/19 01:52:55;;;;;;;46.35;25.05;;;;;;;;;;4954799;28;20097;-68
2022/03/19 01:55:25;;;;;;;34.25;24.42;;;;;;;;;;4955126;29;20122;-68
2022/03/19 01:57:56;;;;;;;33.65;24.33;;;;;;;;;;4954941;28;20073;-68
2022/03/19 02:00:24;;;;;;;31.38;22.20;;;;;;;;;;4953360;29;20047;-68
2022/03/19 02:02:54;;;;;;;27.77;22.75;;;;;;;;;;4955456;28;20043;-68
2022/03/19 02:05:24;;;;;;;37.17;24.38;;;;;;;;;;4955174;28;20569;-68
2022/03/19 02:07:52;;;;;;;32.03;23.10;;;;;;;;;;4955186;29;20058;-68
2022/03/19 02:10:26;;;;;;;31.65;24.60;;;;;;;;;;4954743;28;20051;-68
2022/03/19 02:12:55;;;;;;;33.88;25.35;;;;;;;;;;4954203;29;20085;-68
2022/03/19 02:15:23;;;;;;;27.38;23.55;;;;;;;;;;4955367;29;20114;-68
2022/03/19 02:17:52;;;;;;;30.35;22.40;;;;;;;;;;4955492;29;20055;-68
2022/03/19 02:20:21;;;;;;;28.30;21.52;;;;;;;;;;4955042;28;20062;-68
2022/03/19 02:25:35;;;;;;;29.42;22.00;;;;;;;;;;4954912;29;20061;-69
2022/03/19 02:28:04;;;;;;;32.22;22.65;;;;;;;;;;4955260;28;20055;-68
2022/03/19 02:30:37;;;;;;;29.83;21.75;;;;;;;;;;4954888;28;20055;-68
2022/03/19 02:33:06;;;;;;;30.02;23.77;;;;;;;;;;4954968;28;20066;-68
2022/03/19 02:35:35;;;;;;;25.10;21.83;;;;;;;;;;4954943;28;20055;-68
2022/03/19 02:38:03;;;;;;;32.47;23.05;;;;;;;;;;4955374;28;20051;-69
2022/03/19 02:40:32;;;;;;;27.75;22.45;;;;;;;;;;4955470;28;20090;-69
2022/03/19 02:43:00;;;;;;;29.52;23.50;;;;;;;;;;4953868;29;20134;-68
2022/03/19 02:45:29;;;;;;;31.55;23.38;;;;;;;;;;4955220;28;20106;-68
2022/03/19 02:47:59;;;;;;;27.10;22.58;;;;;;;;;;4954973;28;20054;-68
2022/03/19 02:50:55;;;;;;;33.00;24.27;;;;;;;;;;4955112;29;20062;-69
2022/03/19 02:53:25;;;;;;;33.78;25.95;;;;;;;;;;4955086;28;20082;-68
2022/03/19 02:55:54;;;;;;;30.75;23.70;;;;;;;;;;4954821;28;20122;-68
2022/03/19 02:58:23;;;;;;;32.38;22.27;;;;;;;;;;4954681;28;20126;-69
2022/03/19 03:00:52;;;;;;;32.65;24.00;;;;;;;;;;4954965;28;20183;-69
2022/03/19 03:03:22;;;;;;;29.50;22.50;;;;;;;;;;4954887;28;20047;-69
2022/03/19 03:05:50;;;;;;;36.22;23.33;;;;;;;;;;4954681;28;20062;-69
2022/03/19 03:08:19;;;;;;;28.48;22.85;;;;;;;;;;4953405;29;20059;-69
2022/03/19 03:10:48;;;;;;;35.63;23.45;;;;;;;;;;4954760;29;20055;-68
2022/03/19 03:13:19;;;;;;;30.75;23.38;;;;;;;;;;4954758;29;20047;-69
2022/03/19 03:15:49;;;;;;;30.38;23.15;;;;;;;;;;4955208;29;20047;-69
2022/03/19 03:18:19;;;;;;;29.00;24.70;;;;;;;;;;4954463;29;20142;-69
2022/03/19 03:20:49;;;;;;;27.48;23.58;;;;;;;;;;4954891;28;20047;-69
2022/03/19 03:23:17;;;;;;;28.95;21.98;;;;;;;;;;4957398;29;20495;-69
2022/03/19 03:25:45;;;;;;;25.95;21.80;;;;;;;;;;4958222;29;20438;-69
2022/03/19 03:28:14;;;;;;;29.98;23.08;;;;;;;;;;4958116;28;20061;-69
2022/03/19 03:30:43;;;;;;;30.48;22.75;;;;;;;;;;4957952;29;20078;-69
2022/03/19 03:33:11;;;;;;;27.85;21.75;;;;;;;;;;4957870;28;20383;-68
2022/03/19 03:35:40;;;;;;;29.45;22.23;;;;;;;;;;4956580;29;20112;-69
2022/03/19 03:38:08;;;;;;;29.23;22.60;;;;;;;;;;4957600;28;20114;-69
2022/03/19 03:40:39;;;;;;;28.10;21.90;;;;;;;;;;4957867;28;20055;-68
2022/03/19 03:43:09;;;;;;;30.00;22.48;;;;;;;;;;4958111;28;20102;-68
2022/03/19 03:45:38;;;;;;;30.90;20.73;;;;;;;;;;4958042;28;20055;-69
2022/03/19 03:48:05;;;;;;;32.47;23.27;;;;;;;;;;4957264;28;20061;-68
2022/03/19 03:50:35;;;;;;;29.80;21.75;;;;;;;;;;4957308;28;20082;-68
2022/03/19 03:53:04;;;;;;;27.65;22.38;;;;;;;;;;4957573;28;20408;-69
2022/03/19 03:55:34;;;;;;;31.10;24.02;;;;;;;;;;4957448;28;20071;-69
2022/03/19 03:58:04;;;;;;;26.75;22.33;;;;;;;;;;4957503;28;20055;-68
2022/03/19 04:00:34;;;;;;;29.27;23.30;;;;;;;;;;4957869;28;20051;-69
2022/03/19 04:03:06;;;;;;;31.30;24.55;;;;;;;;;;4957237;28;20055;-69
2022/03/19 04:05:35;;;;;;;27.50;21.63;;;;;;;;;;4957521;28;20407;-68
2022/03/19 04:08:04;;;;;;;30.08;22.63;;;;;;;;;;4957138;29;20066;-68
2022/03/19 04:10:32;;;;;;;31.30;23.13;;;;;;;;;;4957502;28;20055;-68
2022/03/19 04:13:01;;;;;;;30.83;23.85;;;;;;;;;;4956911;29;20049;-68
2022/03/19 04:15:30;;;;;;;24.77;20.60;;;;;;;;;;4957402;28;20043;-69
2022/03/19 04:17:59;;;;;;;28.65;24.33;;;;;;;;;;4956593;28;20043;-68
2022/03/19 04:20:27;;;;;;;33.97;23.33;;;;;;;;;;4956150;29;20055;-68
2022/03/19 04:22:54;;;;;;;30.38;22.20;;;;;;;;;;4957171;28;20050;-68
2022/03/19 04:25:23;;;;;;;29.35;22.20;;;;;;;;;;4957106;28;20423;-68
2022/03/19 04:27:55;;;;;;;27.10;22.08;;;;;;;;;;4956983;28;20047;-68
2022/03/19 04:30:25;;;;;;;35.60;21.80;;;;;;;;;;4956979;28;20070;-68
2022/03/19 04:32:55;;;;;;;33.47;21.02;;;;;;;;;;4956446;28;20059;-70
2022/03/19 04:38:14;;;;;;;27.83;20.73;;;;;;;;;;4956870;29;20051;-70
2022/03/19 04:40:43;;;;;;;31.58;22.17;;;;;;;;;;4955540;29;20062;-68
2022/03/19 04:43:12;;;;;;;30.30;22.77;;;;;;;;;;4956695;28;20047;-68
2022/03/19 04:45:41;;;;;;;32.95;23.23;;;;;;;;;;4956263;28;20058;-68
2022/03/19 04:48:10;;;;;;;29.80;22.08;;;;;;;;;;4956606;28;20130;-68
2022/03/19 04:50:43;;;;;;;29.73;23.77;;;;;;;;;;4956205;28;20047;-68
2022/03/19 04:53:13;;;;;;;31.40;22.50;;;;;;;;;;4956783;28;20454;-68
2022/03/19 04:55:42;;;;;;;33.58;25.33;;;;;;;;;;4956157;28;20070;-68
2022/03/19 04:58:11;;;;;;;33.83;24.35;;;;;;;;;;4956571;28;20062;-68
2022/03/19 05:00:40;;;;;;;30.55;24.42;;;;;;;;;;4956282;28;20091;-68
2022/03/19 05:03:13;;;;;;;26.30;21.77;;;;;;;;;;4956568;28;20451;-68
2022/03/19 05:05:42;;;;;;;31.42;23.42;;;;;;;;;;4956111;28;20131;-68
2022/03/19 05:08:11;;;;;;;28.67;22.88;;;;;;;;;;4956061;28;20058;-68
2022/03/19 05:13:26;;;;;;;27.10;21.73;;;;;;;;;;4955981;28;20483;-69
2022/03/19 05:15:55;;;;;;;29.25;22.10;;;;;;;;;;4956162;28;20140;-69
2022/03/19 05:18:24;;;;;;;31.65;22.75;;;;;;;;;;4956030;28;20057;-69
2022/03/19 05:20:55;;;;;;;27.05;21.38;;;;;;;;;;4956149;28;20479;-69
2022/03/19 05:23:24;;;;;;;25.92;19.95;;;;;;;;;;4956014;28;20058;-69
2022/03/19 05:25:53;;;;;;;27.08;21.50;;;;;;;;;;4956158;28;20510;-69
2022/03/19 05:28:25;;;;;;;32.10;21.40;;;;;;;;;;4955770;28;20051;-69
2022/03/19 05:30:57;;;;;;;26.23;21.60;;;;;;;;;;4955975;28;20058;-69
2022/03/19 05:36:13;;;;;;;30.58;22.23;;;;;;;;;;4955779;29;20059;-69
2022/03/19 05:38:41;;;;;;;29.10;22.13;;;;;;;;;;4955545;28;20126;-69
2022/03/19 05:41:10;;;;;;;24.48;20.63;;;;;;;;;;4954873;29;20471;-69
2022/03/19 05:43:41;;;;;;;32.05;23.17;;;;;;;;;;4955391;28;20094;-69
2022/03/19 05:46:09;;;;;;;31.77;22.90;;;;;;;;;;4955130;28;20443;-71
2022/03/19 05:48:38;;;;;;;30.83;23.65;;;;;;;;;;4953513;28;20459;-71
2022/03/19 05:51:07;;;;;;;29.23;22.98;;;;;;;;;;4954192;29;20048;-70
2022/03/19 05:53:37;;;;;;;30.98;23.40;;;;;;;;;;4955196;29;20051;-68
2022/03/19 05:56:05;;;;;;;30.05;24.20;;;;;;;;;;4954879;28;20054;-69
2022/03/19 05:58:36;;;;;;;29.52;22.23;;;;;;;;;;4954953;29;20066;-70
2022/03/19 06:01:04;;;;;;;32.58;22.60;;;;;;;;;;4954721;29;20049;-70
2022/03/19 06:03:33;;;;;;;27.90;22.42;;;;;;;;;;4953742;29;20039;-70
2022/03/19 06:06:04;;;;;;;27.13;22.55;;;;;;;;;;4954855;29;20047;-70
2022/03/19 06:08:32;;;;;;;26.70;21.25;;;;;;;;;;4954796;28;20803;-70
2022/03/19 06:11:01;;;;;;;27.48;23.35;;;;;;;;;;4954632;29;20051;-70
2022/03/19 06:13:30;;;;;;;32.15;23.98;;;;;;;;;;4954986;28;20082;-70
2022/03/19 06:15:59;;;;;;;37.25;26.10;;;;;;;;;;4954990;28;20499;-73
2022/03/19 06:18:27;;;;;;;38.08;28.08;;;;;;;;;;4953498;29;20058;-71
2022/03/19 06:20:56;;;;;;;32.53;24.13;;;;;;;;;;4954942;28;20528;-71
2022/03/19 06:23:25;;;;;;;34.63;24.55;;;;;;;;;;4952801;29;20437;-71
2022/03/19 06:25:54;;;;;;;28.05;21.65;;;;;;;;;;4955048;29;20070;-69
2022/03/19 06:28:23;;;;;;;30.40;23.30;;;;;;;;;;4954360;28;20495;-69
2022/03/19 06:30:51;;;;;;;29.90;20.70;;;;;;;;;;4955200;28;20130;-69
2022/03/19 06:33:21;;;;;;;26.55;21.40;;;;;;;;;;4954666;28;20078;-69
2022/03/19 06:38:38;;;;;;;27.88;22.92;;;;;;;;;;4950585;29;20407;-69
2022/03/19 06:41:07;;;;;;;29.23;21.73;;;;;;;;;;4954278;28;20055;-69
2022/03/19 06:43:36;;;;;;;31.20;21.73;;;;;;;;;;4953341;29;20047;-68
2022/03/19 06:46:05;;;;;;;32.00;22.75;;;;;;;;;;4954179;29;20051;-67
2022/03/19 06:48:33;;;;;;;29.90;22.77;;;;;;;;;;4953895;29;20106;-69
2022/03/19 06:51:02;;;;;;;34.95;24.95;;;;;;;;;;4954480;28;20071;-69
2022/03/19 06:53:31;;;;;;;28.70;22.02;;;;;;;;;;4950410;29;20052;-69
2022/03/19 06:56:00;;;;;;;28.27;22.88;;;;;;;;;;4954990;28;20563;-69
2022/03/19 06:58:29;;;;;;;35.05;24.13;;;;;;;;;;4958194;28;20066;-69
2022/03/19 07:00:57;;;;;;;32.22;22.42;;;;;;;;;;4958115;28;20100;-68
2022/03/19 07:03:26;;;;;;;26.17;19.70;;;;;;;;;;4955047;29;20061;-68
2022/03/19 07:05:58;;;;;;;29.80;22.45;;;;;;;;;;4957178;29;20052;-69
2022/03/19 07:08:50;;;;;;;31.15;24.00;;;;;;;;;;4957134;29;20039;-69
2022/03/19 07:11:19;;;;;;;27.92;23.60;;;;;;;;;;4957622;29;20051;-69
2022/03/19 07:13:47;;;;;;;32.42;20.75;;;;;;;;;;4957881;29;20077;-70
2022/03/19 07:16:15;;;;;;;30.13;23.05;;;;;;;;;;4956077;29;20043;-69
2022/03/19 07:18:44;;;;;;;39.30;22.77;;;;;;;;;;4954826;29;20055;-69
2022/03/19 07:21:13;;;;;;;31.80;22.55;;;;;;;;;;4957317;29;20074;-73
2022/03/19 07:23:43;;;;;;;35.78;20.48;;;;;;;;;;4956322;29;20130;-69
2022/03/19 07:26:12;;;;;;;26.80;20.17;;;;;;;;;;4957530;28;20055;-72
2022/03/19 07:28:43;;;;;;;28.88;19.73;;;;;;;;;;4957695;28;20110;-70
2022/03/19 07:31:12;;;;;;;30.40;20.52;;;;;;;;;;4957628;29;20055;-69
2022/03/19 07:33:41;;;;;;;25.42;19.45;;;;;;;;;;4957174;28;20054;-71
2022/03/19 07:36:10;;;;;;;27.08;19.88;;;;;;;;;;4957431;29;20059;-69
2022/03/19 07:38:40;;;;;;;32.67;21.50;;;;;;;;;;4957221;29;20051;-69
2022/03/19 07:43:55;;;;;;;34.17;21.88;;;;;;;;;;4953627;29;20094;-68
2022/03/19 07:46:27;;;;;;;30.77;19.45;;;;;;;;;;4957009;28;20058;-69
2022/03/19 07:48:56;;;;;;;29.33;18.33;;;;;;;;;;4956423;28;20109;-69
2022/03/19 07:51:24;;;;;;;26.55;18.13;;;;;;;;;;4954500;28;20089;-68
2022/03/19 07:53:53;;;;;;;20.63;16.30;;;;;;;;;;4955279;28;20053;-69
2022/03/19 07:56:22;;;;;;;29.60;17.50;;;;;;;;;;4956740;29;20055;-70
2022/03/19 07:58:50;;;;;;;25.08;17.60;;;;;;;;;;4955930;29;20138;-69
2022/03/19 08:01:19;;;;;;;22.38;17.48;;;;;;;;;;4956349;29;20047;-69
2022/03/19 08:03:49;;;;;;;21.90;16.23;;;;;;;;;;4957664;28;20051;-69
2022/03/19 08:06:19;;;;;;;20.60;16.27;;;;;;;;;;4956108;28;20101;-71
2022/03/19 08:08:48;;;;;;;29.15;18.23;;;;;;;;;;4954330;28;20063;-69
2022/03/19 08:11:17;;;;;;;23.98;15.32;;;;;;;;;;4956149;29;20122;-71
2022/03/19 08:13:47;;;;;;;23.98;15.40;;;;;;;;;;4956524;28;20051;-69
2022/03/19 08:16:17;;;;;;;22.52;15.55;;;;;;;;;;4957075;28;20043;-69
2022/03/19 08:18:46;;;;;;;19.40;14.18;;;;;;;;;;4956104;29;20067;-71
2022/03/19 08:21:14;;;;;;;25.77;15.20;;;;;;;;;;4954784;29;20106;-71
2022/03/19 08:23:43;;;;;;;18.95;15.25;;;;;;;;;;4956578;28;20047;-71
2022/03/19 08:26:11;;;;;;;23.63;16.30;;;;;;;;;;4956355;28;20146;-71
2022/03/19 08:28:40;;;;;;;22.38;16.52;;;;;;;;;;4956082;29;20047;-75
2022/03/19 08:31:08;;;;;;;20.20;14.70;;;;;;;;;;4956097;28;20127;-70
2022/03/19 08:33:37;;;;;;;22.13;17.58;;;;;;;;;;4953984;28;20058;-70
2022/03/19 08:36:06;;;;;;;21.70;16.58;;;;;;;;;;4954757;28;20083;-71
2022/03/19 08:41:23;;;;;;;19.95;14.07;;;;;;;;;;4953509;29;20067;-69
2022/03/19 08:43:51;;;;;;;21.27;15.23;;;;;;;;;;4954423;28;20054;-71
2022/03/19 08:46:20;;;;;;;21.35;16.85;;;;;;;;;;4955381;28;20055;-72
2022/03/19 08:48:48;;;;;;;21.73;15.27;;;;;;;;;;4952505;29;20051;-70
2022/03/19 08:54:05;;;;;;;22.15;16.27;;;;;;;;;;4955331;29;20051;-71
2022/03/19 08:56:35;;;;;;;18.20;15.27;;;;;;;;;;4955523;29;20071;-71
2022/03/19 08:59:04;;;;;;;18.77;15.63;;;;;;;;;;4955459;29;20102;-73
2022/03/19 09:01:34;;;;;;;21.58;16.15;;;;;;;;;;4955625;28;20069;-73
2022/03/19 09:04:03;;;;;;;22.30;16.95;;;;;;;;;;4955406;28;20058;-72
2022/03/19 09:06:33;;;;;;;23.75;15.82;;;;;;;;;;4953546;29;20054;-67
2022/03/19 09:09:03;;;;;;;22.42;15.90;;;;;;;;;;4955633;29;20055;-66
2022/03/19 09:11:33;;;;;;;16.60;14.55;;;;;;;;;;4955495;28;20059;-65
2022/03/19 09:14:03;;;;;;;19.63;16.00;;;;;;;;;;4955349;28;20055;-66
2022/03/19 09:16:33;;;;;;;19.30;15.07;;;;;;;;;;4955605;28;20135;-66
2022/03/19 09:19:03;;;;;;;17.65;15.85;;;;;;;;;;4955164;28;20051;-66
2022/03/19 09:21:31;;;;;;;18.92;16.02;;;;;;;;;;4954516;29;20499;-64
2022/03/19 09:24:01;;;;;;;20.25;16.52;;;;;;;;;;4955136;28;20138;-68
2022/03/19 09:26:29;;;;;;;40.05;17.48;;;;;;;;;;4954941;28;20059;-69
2022/03/19 09:28:58;;;;;;;20.63;15.55;;;;;;;;;;4953618;29;20047;-69
2022/03/19 09:31:27;;;;;;;18.98;14.55;;;;;;;;;;4954981;28;20048;-69
2022/03/19 09:33:56;;;;;;;16.58;14.90;;;;;;;;;;4954654;28;20534;-69
2022/03/19 09:36:24;;;;;;;22.67;14.82;;;;;;;;;;4954870;28;20055;-70
2022/03/19 09:38:53;;;;;;;24.25;17.55;;;;;;;;;;4954713;28;20519;-69
2022/03/19 09:41:20;;;;;;;24.13;18.20;;;;;;;;;;4955056;28;20510;-71
2022/03/19 09:43:51;;;;;;;17.02;15.05;;;;;;;;;;4953925;29;20106;-71
2022/03/19 09:46:18;;;;;;;19.35;17.23;;;;;;;;;;4955178;29;20062;-72
2022/03/19 09:48:48;;;;;;;20.58;16.80;;;;;;;;;;4953169;29;20082;-72
2022/03/19 09:51:17;;;;;;;21.73;16.02;;;;;;;;;;4954641;29;20550;-72
2022/03/19 09:53:47;;;;;;;19.35;15.43;;;;;;;;;;4954172;29;20139;-71
2022/03/19 09:56:33;;;;;;;20.33;16.15;;;;;;;;;;4951415;29;20047;-71
2022/03/19 09:59:02;;;;;;;18.00;15.80;;;;;;;;;;4954296;28;20055;-71
2022/03/19 10:01:33;;;;;;;18.55;16.50;;;;;;;;;;4954625;28;20074;-72
2022/03/19 10:04:04;;;;;;;16.90;13.30;;;;;;;;;;4954605;28;20063;-72
2022/03/19 10:09:45;;;;;;;18.05;16.23;;;;;;;;;;4954383;29;20090;-70
2022/03/19 10:12:22;;;;;;;16.08;14.38;;;;;;;;;;4952388;28;20051;-69
2022/03/19 10:14:53;;;;;;;23.17;15.65;;;;;;;;;;4954015;29;20059;-69
2022/03/19 10:17:38;;;;;;;19.13;13.88;;;;;;;;;;4954705;28;20098;-70
2022/03/19 10:20:12;;;;;;;15.35;13.85;;;;;;;;;;4954592;28;20198;-71
2022/03/19 10:22:42;;;;;;;16.20;14.70;;;;;;;;;;4954590;29;20059;-70
2022/03/19 10:25:12;;;;;;;16.50;13.27;;;;;;;;;;4954923;29;20063;-70
2022/03/19 10:27:43;;;;;;;14.18;12.77;;;;;;;;;;4954439;29;20530;-71
2022/03/19 10:30:16;;;;;;;16.08;12.93;;;;;;;;;;4954611;28;20074;-70
2022/03/19 10:32:53;;;;;;;15.50;12.90;;;;;;;;;;4958635;28;20062;-69
2022/03/19 10:35:25;;;;;;;16.20;12.55;;;;;;;;;;4960021;28;20105;-70
2022/03/19 10:37:56;;;;;;;15.53;13.93;;;;;;;;;;4960895;28;20044;-70
2022/03/19 10:40:41;;;;;;;16.60;13.48;;;;;;;;;;4960476;28;20325;-70
2022/03/19 10:43:10;;;;;;;20.83;15.27;;;;;;;;;;4955585;29;20517;-72
2022/03/19 10:45:43;;;;;;;20.10;14.05;;;;;;;;;;4957698;29;20109;-72
2022/03/19 10:48:13;;;;;;;14.23;12.73;;;;;;;;;;4958531;28;20047;-72
2022/03/19 10:50:41;;;;;;;18.40;13.13;;;;;;;;;;4957208;29;20055;-72
2022/03/19 10:53:11;;;;;;;14.38;11.82;;;;;;;;;;4955537;28;20055;-71
2022/03/19 10:55:39;;;;;;;13.13;11.82;;;;;;;;;;4949901;28;20054;-70
2022/03/19 10:58:08;;;;;;;12.50;10.30;;;;;;;;;;4951285;29;20506;-70
2022/03/19 11:00:56;;;;;;;13.55;11.80;;;;;;;;;;4957819;28;20086;-70
2022/03/19 11:03:27;;;;;;;12.75;11.55;;;;;;;;;;4957269;28;20054;-70
2022/03/19 11:06:00;;;;;;;15.45;12.48;;;;;;;;;;4957861;28;20058;-70
2022/03/19 11:08:29;;;;;;;13.18;11.32;;;;;;;;;;4966745;28;20138;-71
2022/03/19 11:10:59;;;;;;;13.98;11.75;;;;;;;;;;4955214;29;20122;-70
2022/03/19 11:13:30;;;;;;;16.00;12.35;;;;;;;;;;4958169;29;20047;-71
2022/03/19 11:16:00;;;;;;;13.50;11.98;;;;;;;;;;4955379;29;20106;-72
2022/03/19 11:18:28;;;;;;;14.10;12.70;;;;;;;;;;4957243;28;20083;-72
2022/03/19 11:20:58;;;;;;;13.77;12.27;;;;;;;;;;4957808;28;20056;-73
2022/03/19 11:23:46;;;;;;;14.95;13.55;;;;;;;;;;4958010;28;20070;-72
2022/03/19 11:26:20;;;;;;;17.17;13.55;;;;;;;;;;4957712;29;20047;-72
2022/03/19 11:28:51;;;;;;;17.55;14.38;;;;;;;;;;4957073;28;20402;-71
2022/03/19 11:31:26;;;;;;;13.93;12.43;;;;;;;;;;4956520;29;20130;-71
2022/03/19 11:34:04;;;;;;;11.57;10.38;;;;;;;;;;4957337;28;20142;-71
2022/03/19 11:36:59;;;;;;;14.45;11.07;;;;;;;;;;4956052;29;20114;-71
2022/03/19 11:39:28;;;;;;;13.05;11.85;;;;;;;;;;4952504;29;20054;-71
2022/03/19 11:41:56;;;;;;;14.95;12.23;;;;;;;;;;4957090;28;20054;-70
2022/03/19 11:44:25;;;;;;;18.33;12.65;;;;;;;;;;4956572;29;20054;-71
2022/03/19 11:47:13;;;;;;;13.43;11.57;;;;;;;;;;4957309;28;20542;-72
2022/03/19 11:49:57;;;;;;;14.27;12.02;;;;;;;;;;4957031;28;20078;-70
2022/03/19 11:52:24;;;;;;;12.55;11.35;;;;;;;;;;4957526;28;20413;-72
2022/03/19 11:55:04;;;;;;;13.88;12.57;;;;;;;;;;4957274;28;20550;-69
2022/03/19 11:57:48;;;;;;;15.23;12.25;;;;;;;;;;4957682;28;20078;-68
2022/03/19 12:00:26;;;;;;;15.35;13.10;;;;;;;;;;4957329;28;20106;-66
2022/03/19 12:03:13;;;;;;;13.50;12.10;;;;;;;;;;4957100;28;20063;-72
2022/03/19 12:05:41;;;;;;;16.67;13.43;;;;;;;;;;4955876;29;20063;-71
2022/03/19 12:08:26;;;;;;;13.57;11.60;;;;;;;;;;4957238;28;20526;-71
2022/03/19 12:11:01;;;;;;;14.40;12.85;;;;;;;;;;4957109;28;20055;-71
2022/03/19 12:13:29;;;;;;;14.57;12.95;;;;;;;;;;4957606;28;20055;-67
2022/03/19 12:16:04;;;;;;;16.27;12.85;;;;;;;;;;4957271;28;20047;-70
2022/03/19 12:18:38;;;;;;;17.50;13.15;;;;;;;;;;4957509;28;20059;-69
2022/03/19 12:21:10;;;;;;;14.95;13.48;;;;;;;;;;4956952;28;20051;-68
2022/03/19 12:23:42;;;;;;;27.50;24.83;;;;;;;;;;4955415;28;20692;-68
2022/03/19 12:26:11;;;;;;;16.10;14.50;;;;;;;;;;4955421;28;20047;-68
2022/03/19 12:28:40;;;;;;;16.95;13.80;;;;;;;;;;4955718;28;20081;-68
2022/03/19 12:31:12;;;;;;;16.77;14.77;;;;;;;;;;4955889;28;20055;-69
2022/03/19 12:33:43;;;;;;;;;;;;;;;;;;4956245;28;20079;-68
2022/03/19 12:36:14;;;;;;;16.48;14.90;;;;;;;;;;4955105;28;19923;-68
2022/03/19 12:38:42;;;;;;;17.52;14.52;;;;;;;;;;4955939;28;20102;-68
2022/03/19 12:41:31;;;;;;;21.92;14.23;;;;;;;;;;4956416;28;20101;-68
2022/03/19 12:44:18;;;;;;;15.88;14.18;;;;;;;;;;4956130;29;20094;-68
2022/03/19 12:47:12;;;;;;;15.32;13.77;;;;;;;;;;4956447;29;20051;-68
2022/03/19 12:50:10;;;;;;;15.18;13.70;;;;;;;;;;4955557;29;20540;-68
2022/03/19 12:52:44;;;;;;;15.75;13.85;;;;;;;;;;4955796;29;20139;-68
2022/03/19 12:55:21;;;;;;;15.63;14.00;;;;;;;;;;4955507;28;20171;-68
2022/03/19 12:57:59;;;;;;;16.95;15.32;;;;;;;;;;4963314;28;20059;-68
2022/03/19 13:00:28;;;;;;;16.65;14.73;;;;;;;;;;4955745;28;20057;-68
2022/03/19 13:02:57;;;;;;;16.17;14.50;;;;;;;;;;4956017;29;20047;-69
2022/03/19 13:05:26;;;;;;;16.17;14.38;;;;;;;;;;4955713;28;20051;-68
2022/03/19 13:08:01;;;;;;;16.08;14.38;;;;;;;;;;4955800;28;20522;-69
2022/03/19 13:10:30;;;;;;;15.05;13.65;;;;;;;;;;4955529;28;20570;-68
2022/03/19 13:13:07;;;;;;;16.20;14.55;;;;;;;;;;4955503;28;20050;-68
2022/03/19 13:15:36;;;;;;;18.60;14.25;;;;;;;;;;4956260;28;20051;-68
2022/03/19 13:18:09;;;;;;;15.88;14.27;;;;;;;;;;4954675;29;20130;-69
2022/03/19 13:20:39;;;;;;;16.67;13.80;;;;;;;;;;4955986;28;20059;-69
2022/03/19 13:23:09;;;;;;;15.00;13.45;;;;;;;;;;4955675;28;20054;-69
2022/03/19 13:25:37;;;;;;;17.08;15.13;;;;;;;;;;4955724;28;20051;-68
2022/03/19 13:28:07;;;;;;;17.67;14.40;;;;;;;;;;4955447;28;20055;-68
2022/03/19 13:30:36;;;;;;;16.73;14.85;;;;;;;;;;4954613;29;20043;-68
2022/03/19 13:33:05;;;;;;;17.02;14.50;;;;;;;;;;4955611;28;20562;-68
2022/03/19 13:35:39;;;;;;;14.85;13.15;;;;;;;;;;4955220;29;20059;-68
2022/03/19 13:38:08;;;;;;;;;;;;;;;;;;4955728;28;20051;-68
2022/03/19 13:40:39;;;;;;;13.57;12.02;;;;;;;;;;4969723;28;19926;-68
2022/03/19 13:43:09;;;;;;;14.85;13.27;;;;;;;;;;4955660;28;20065;-68
2022/03/19 13:45:38;;;;;;;20.05;15.57;;;;;;;;;;4955436;28;20070;-68
2022/03/19 13:48:11;;;;;;;14.65;11.90;;;;;;;;;;4955173;28;20142;-68
2022/03/19 13:50:57;;;;;;;15.07;11.05;;;;;;;;;;4954970;28;20062;-68
2022/03/19 13:53:42;;;;;;;13.40;12.00;;;;;;;;;;4955104;28;20055;-67
2022/03/19 13:56:10;;;;;;;12.18;10.98;;;;;;;;;;4955232;28;20502;-68
2022/03/19 13:58:39;;;;;;;12.82;11.32;;;;;;;;;;4953407;28;20050;-68
2022/03/19 14:01:15;;;;;;;14.27;11.90;;;;;;;;;;4970554;28;20098;-67
2022/03/19 14:03:44;;;;;;;15.35;12.93;;;;;;;;;;4949010;29;20058;-67
2022/03/19 14:06:13;;;;;;;14.43;11.55;;;;;;;;;;4954664;28;20446;-67
2022/03/19 14:08:42;;;;;;;12.18;10.90;;;;;;;;;;4955111;28;20078;-67
2022/03/19 14:11:15;;;;;;;14.23;12.20;;;;;;;;;;4954661;28;20054;-67
2022/03/19 14:13:45;;;;;;;14.70;11.57;;;;;;;;;;4954976;28;20075;-67
2022/03/19 14:16:17;;;;;;;13.45;11.07;;;;;;;;;;4954970;28;20075;-68
2022/03/19 14:18:47;;;;;;;14.77;11.50;;;;;;;;;;4955186;28;20059;-68
2022/03/19 14:21:16;;;;;;;15.57;11.63;;;;;;;;;;4955197;29;20104;-68
2022/03/19 14:23:46;;;;;;;16.52;12.73;;;;;;;;;;4954998;28;20106;-68
2022/03/19 14:26:17;;;;;;;12.90;11.27;;;;;;;;;;4955015;28;20063;-68
2022/03/19 14:28:48;;;;;;;14.93;11.57;;;;;;;;;;4954593;28;20160;-68
2022/03/19 14:31:17;;;;;;;14.95;12.80;;;;;;;;;;4955007;28;20086;-68
2022/03/19 14:33:46;;;;;;;21.67;10.80;;;;;;;;;;4954744;28;20380;-69
2022/03/19 14:36:15;;;;;;;14.10;11.20;;;;;;;;;;4953248;28;20063;-67
2022/03/19 14:38:45;;;;;;;12.77;11.40;;;;;;;;;;4953208;28;20055;-68
2022/03/19 14:41:15;;;;;;;16.52;12.07;;;;;;;;;;4954392;29;20057;-68
2022/03/19 14:43:46;;;;;;;13.60;11.80;;;;;;;;;;4954601;29;20062;-68
2022/03/19 14:46:14;;;;;;;15.00;12.10;;;;;;;;;;4954705;28;20078;-69
2022/03/19 14:48:45;;;;;;;13.70;11.60;;;;;;;;;;4954611;29;20411;-69
2022/03/19 14:51:18;;;;;;;13.70;12.30;;;;;;;;;;4954200;28;20048;-69
2022/03/19 14:53:47;;;;;;;16.00;11.27;;;;;;;;;;4954595;29;20059;-68
2022/03/19 14:56:17;;;;;;;15.43;11.57;;;;;;;;;;4953900;29;20530;-69
2022/03/19 14:58:47;;;;;;;14.07;10.90;;;;;;;;;;4954365;29;20059;-69
2022/03/19 15:01:17;;;;;;;13.68;11.48;;;;;;;;;;4954352;29;20055;-69
2022/03/19 15:03:46;;;;;;;13.38;10.65;;;;;;;;;;4954195;28;20051;-69